20  °C
Temperature
68  °F
Temperature
57  °F
 Dewpoint
14  °C
  Dewpoint
69  %
 Humidity
  Temperature
13  km/h
Wind Speed
7  kts
Wind Speed
8  mph
Wind Speed
0  m/s
Wind Speed
220°
South West

Wind Speed
Mostly Scattered
Clouds
Pressure 1016.92 (hPa) - 30.03 (inHG)
Visibility 6.2 (mi) - 10.0 (km)

Sky Conditions
EDDK
Location Köln - Bonn 24,85 mi (38.62 km)
Metar :EDDK 241120Z 22007KT 9999 SCT023 20/14 Q1017 NOSIG
Fri 24th September 13:20 pm

Nearest Airport
https://www.checkwx.com/weather/EDDK
  Metar Aviation API Data Provided by https://www.checkwx.com/ Original CSS/SVG/PHP scripts by weather34.com © 2015-2021